Time;durP1;ratioP1;P1;durP2;ratioP2;P2;SDS_P1;SDS_P2;PMS_P1;PMS_P2;Temp;Humidity;BMP_temperature;BMP_pressure;BME280_temperature;BME280_humidity;BME280_pressure;Samples;Min_cycle;Max_cycle;Signal;HPM_P1;HPM_P2
2021/05/05 00:00:18;;;;;;;2.15;1.30;;;;;;;14.00;45.01;95404.86;1787667;80;21082;-82
2021/05/05 00:02:46;;;;;;;3.70;2.22;;;;;;;14.00;44.84;95406.17;1761544;80;21141;-82
2021/05/05 00:05:13;;;;;;;2.83;1.70;;;;;;;14.00;44.96;95415.82;1726514;81;21308;-83
2021/05/05 00:07:39;;;;;;;3.20;1.62;;;;;;;13.97;45.07;95425.39;1768286;80;21348;-83
2021/05/05 00:10:06;;;;;;;2.37;1.80;;;;;;;13.94;45.12;95424.54;1758490;80;21216;-83
2021/05/05 00:12:32;;;;;;;2.20;1.62;;;;;;;13.92;45.21;95417.44;1764912;80;21156;-83
2021/05/05 00:14:58;;;;;;;2.58;1.50;;;;;;;13.89;45.28;95415.29;1767873;80;21143;-83
2021/05/05 00:17:24;;;;;;;3.65;1.67;;;;;;;13.88;45.35;95416.31;1755799;80;21980;-83
2021/05/05 00:19:50;;;;;;;4.53;1.80;;;;;;;13.86;45.50;95412.63;1749410;80;21098;-84
2021/05/05 00:22:16;;;;;;;2.22;1.60;;;;;;;13.82;45.63;95410.16;1755505;80;21327;-84
2021/05/05 00:24:42;;;;;;;2.72;1.70;;;;;;;13.81;45.45;95403.34;1762611;80;21102;-82
2021/05/05 00:27:08;;;;;;;3.00;1.75;;;;;;;13.79;45.64;95402.27;1758694;80;21288;-83
2021/05/05 00:29:34;;;;;;;1.72;1.32;;;;;;;13.76;45.80;95397.50;1767454;80;21087;-82
2021/05/05 00:32:00;;;;;;;1.85;1.52;;;;;;;13.74;45.38;95385.70;1756566;80;21130;-82
2021/05/05 00:34:26;;;;;;;3.20;1.72;;;;;;;13.76;45.39;95392.28;1757371;80;21110;-83
2021/05/05 00:36:53;;;;;;;1.77;1.67;;;;;;;13.79;45.54;95379.28;1754755;80;21404;-83
2021/05/05 00:39:18;;;;;;;1.55;1.20;;;;;;;13.78;45.59;95380.30;1765915;80;21114;-82
2021/05/05 00:41:45;;;;;;;3.02;1.62;;;;;;;13.76;45.55;95371.39;1758453;80;21130;-82
2021/05/05 00:44:11;;;;;;;2.58;1.40;;;;;;;13.75;45.81;95371.62;1762582;80;21118;-82
2021/05/05 00:46:37;;;;;;;3.25;2.05;;;;;;;13.71;45.68;95369.98;1760445;80;21126;-83
2021/05/05 00:49:03;;;;;;;3.50;1.98;;;;;;;13.68;45.85;95376.96;1760833;80;21168;-83
2021/05/05 00:51:29;;;;;;;2.52;2.22;;;;;;;13.66;45.79;95377.67;1767770;80;21122;-82
2021/05/05 00:53:55;;;;;;;3.10;2.22;;;;;;;13.64;45.95;95379.71;1760701;80;21121;-82
2021/05/05 00:56:21;;;;;;;4.37;3.00;;;;;;;13.63;45.77;95379.94;1753697;80;21271;-82
2021/05/05 00:58:47;;;;;;;4.20;2.10;;;;;;;13.60;45.92;95375.97;1763140;80;21288;-82
2021/05/05 01:01:13;;;;;;;2.65;1.60;;;;;;;13.58;45.97;95368.88;1758881;80;21259;-82
2021/05/05 01:03:40;;;;;;;2.45;1.50;;;;;;;13.58;45.82;95372.79;1764886;80;21309;-82
2021/05/05 01:06:06;;;;;;;3.70;1.52;;;;;;;13.57;45.84;95371.71;1763428;80;21142;-82
2021/05/05 01:08:32;;;;;;;2.52;1.50;;;;;;;13.57;45.83;95375.63;1765668;80;21061;-82
2021/05/05 01:10:58;;;;;;;1.42;1.30;;;;;;;13.55;46.06;95364.63;1757551;80;21275;-82
2021/05/05 01:13:24;;;;;;;2.20;1.55;;;;;;;13.54;45.96;95370.86;1759863;80;21108;-82
2021/05/05 01:15:50;;;;;;;2.72;1.30;;;;;;;13.55;45.74;95361.50;1760001;80;21105;-82
2021/05/05 01:18:16;;;;;;;3.25;2.10;;;;;;;13.55;45.91;95362.80;1764410;80;21134;-82
2021/05/05 01:20:42;;;;;;;2.85;1.60;;;;;;;13.55;45.74;95359.41;1762681;80;21235;-82
2021/05/05 01:23:08;;;;;;;3.00;1.47;;;;;;;13.56;45.84;95364.39;1761709;80;21220;-82
2021/05/05 01:25:34;;;;;;;4.22;1.47;;;;;;;13.57;46.00;95363.88;1752689;80;21110;-82
2021/05/05 01:28:00;;;;;;;2.65;1.50;;;;;;;13.56;46.29;95355.77;1763720;80;21119;-84
2021/05/05 01:30:26;;;;;;;2.60;1.40;;;;;;;13.53;45.99;95359.63;1758932;80;21138;-83
2021/05/05 01:32:52;;;;;;;2.55;1.52;;;;;;;13.50;46.19;95353.53;1763231;80;21110;-83
2021/05/05 01:35:19;;;;;;;1.62;1.47;;;;;;;13.48;46.04;95350.35;1762241;80;21511;-83
2021/05/05 01:37:48;;;;;;;2.20;1.42;;;;;;;13.47;46.12;95348.77;1756290;80;21124;-84
2021/05/05 01:40:22;;;;;;;2.02;1.55;;;;;;;13.47;46.26;95351.37;1751900;80;21103;-82
2021/05/05 01:42:48;;;;;;;1.57;1.47;;;;;;;13.45;46.34;95352.91;1757648;80;21264;-82
2021/05/05 01:45:14;;;;;;;1.62;1.25;;;;;;;13.43;46.30;95346.33;1761050;80;21258;-82
2021/05/05 01:47:40;;;;;;;1.80;1.47;;;;;;;13.41;46.25;95339.23;1727912;80;21271;-82
2021/05/05 01:50:07;;;;;;;3.10;1.40;;;;;;;13.41;46.32;95340.54;1761921;80;21061;-83
2021/05/05 01:52:33;;;;;;;1.57;1.27;;;;;;;13.39;46.47;95332.94;1760307;80;21118;-83
2021/05/05 01:54:59;;;;;;;2.37;1.40;;;;;;;13.38;46.33;95325.34;1752761;80;21345;-83
2021/05/05 01:57:35;;;;;;;3.30;1.55;;;;;;;13.39;46.23;95331.63;1756898;80;21241;-83
2021/05/05 02:00:05;;;;;;;2.80;1.55;;;;;;;13.40;46.22;95324.60;1758092;80;21119;-83
2021/05/05 02:02:31;;;;;;;3.50;1.32;;;;;;;13.39;45.84;95325.11;1732755;80;21098;-84
2021/05/05 02:04:57;;;;;;;1.67;1.30;;;;;;;13.41;45.93;95327.49;1771334;80;21244;-84
2021/05/05 02:07:23;;;;;;;1.95;1.17;;;;;;;13.44;45.85;95332.26;1779275;80;21098;-84
2021/05/05 02:09:49;;;;;;;3.20;1.22;;;;;;;13.48;45.84;95319.04;1771027;80;21102;-84
2021/05/05 02:12:15;;;;;;;1.98;1.42;;;;;;;13.47;45.82;95318.24;1739936;80;21114;-83
2021/05/05 02:14:43;;;;;;;2.30;1.15;;;;;;;13.49;46.06;95318.02;1749551;80;21750;-84
2021/05/05 02:17:09;;;;;;;2.72;1.67;;;;;;;13.48;46.12;95317.73;1774349;80;21113;-82
2021/05/05 02:19:36;;;;;;;1.57;1.35;;;;;;;13.47;46.21;95309.11;1772368;80;21130;-82
2021/05/05 02:22:02;;;;;;;1.92;1.22;;;;;;;13.46;46.39;95301.00;1735613;80;21125;-82
2021/05/05 02:24:28;;;;;;;2.75;1.82;;;;;;;13.46;45.74;95309.34;1746610;80;21122;-82
2021/05/05 02:26:54;;;;;;;1.87;1.35;;;;;;;13.50;45.89;95296.12;1765616;80;21122;-82
2021/05/05 02:29:20;;;;;;;1.85;1.42;;;;;;;13.55;45.82;95300.17;1771178;80;21070;-82
2021/05/05 02:31:47;;;;;;;2.33;1.20;;;;;;;13.57;45.83;95290.30;1766041;80;21110;-82
2021/05/05 02:34:13;;;;;;;2.90;1.42;;;;;;;13.58;45.67;95290.58;1765790;80;21429;-83
2021/05/05 02:36:39;;;;;;;1.50;1.02;;;;;;;13.60;45.60;95289.05;1774423;80;21365;-84
2021/05/05 02:39:06;;;;;;;4.28;1.45;;;;;;;13.61;45.10;95280.98;1768660;80;21105;-83
2021/05/05 02:41:32;;;;;;;4.05;1.32;;;;;;;13.65;45.24;95283.41;1770180;80;21297;-83
2021/05/05 02:43:58;;;;;;;1.32;1.20;;;;;;;13.67;45.44;95284.02;1769849;80;21133;-83
2021/05/05 02:46:24;;;;;;;2.85;1.40;;;;;;;13.67;45.04;95276.69;1772257;80;21123;-83
2021/05/05 02:48:50;;;;;;;2.55;1.52;;;;;;;13.68;45.14;95284.30;1775661;80;21815;-83
2021/05/05 02:51:16;;;;;;;2.22;1.60;;;;;;;13.68;45.50;95280.89;1767053;80;21112;-83
2021/05/05 02:53:42;;;;;;;2.62;1.37;;;;;;;13.66;45.24;95281.09;1771976;80;21112;-83
2021/05/05 02:56:08;;;;;;;3.47;1.70;;;;;;;13.66;45.08;95283.70;1771499;80;21096;-84
2021/05/05 02:58:35;;;;;;;2.05;1.75;;;;;;;13.65;45.31;95283.41;1766712;80;21091;-83
2021/05/05 03:01:01;;;;;;;2.17;1.77;;;;;;;13.64;45.18;95270.59;1771325;80;21453;-83
2021/05/05 03:03:27;;;;;;;1.55;1.40;;;;;;;13.60;45.20;95268.95;1765433;80;21065;-83
2021/05/05 03:05:53;;;;;;;1.92;1.50;;;;;;;13.60;45.26;95268.95;1765918;80;21105;-83
2021/05/05 03:08:19;;;;;;;2.87;1.82;;;;;;;13.61;44.91;95268.45;1758680;80;21135;-83
2021/05/05 03:10:47;;;;;;;2.58;1.67;;;;;;;13.63;44.99;95271.62;1758358;80;21113;-83
2021/05/05 03:13:13;;;;;;;2.60;1.30;;;;;;;13.65;44.78;95274.79;1761594;80;22409;-83
2021/05/05 03:15:39;;;;;;;2.67;1.47;;;;;;;13.65;44.97;95275.58;1756278;80;21376;-83
2021/05/05 03:18:05;;;;;;;1.77;1.45;;;;;;;13.66;44.66;95280.30;1762498;80;21101;-84
2021/05/05 03:20:31;;;;;;;1.50;1.07;;;;;;;13.69;44.11;95280.66;1764938;80;21256;-84
2021/05/05 03:22:57;;;;;;;2.45;1.62;;;;;;;13.72;44.92;95273.67;1758598;80;21137;-82
2021/05/05 03:25:23;;;;;;;2.22;1.50;;;;;;;13.70;44.55;95273.11;1760624;80;21109;-82
2021/05/05 03:27:49;;;;;;;2.58;1.60;;;;;;;13.70;44.71;95273.11;1760282;80;21102;-82
2021/05/05 03:30:18;;;;;;;2.92;1.65;;;;;;;13.68;44.81;95280.38;1760082;80;21137;-82
2021/05/05 03:32:44;;;;;;;1.87;1.22;;;;;;;13.68;44.64;95282.98;1709183;82;21122;-82
2021/05/05 03:35:11;;;;;;;2.87;1.45;;;;;;;13.68;44.74;95276.97;1760431;80;21344;-82
2021/05/05 03:37:37;;;;;;;4.05;1.70;;;;;;;13.67;44.60;95281.91;1760840;80;21144;-82
2021/05/05 03:40:07;;;;;;;3.42;1.62;;;;;;;13.65;44.81;95282.63;1763065;80;21085;-82
2021/05/05 03:42:33;;;;;;;2.77;1.40;;;;;;;13.64;44.62;95285.74;1763244;80;21844;-82
2021/05/05 03:45:00;;;;;;;1.65;1.20;;;;;;;13.68;44.60;95282.19;1762948;80;21110;-82
2021/05/05 03:47:26;;;;;;;3.60;1.80;;;;;;;13.67;44.66;95290.53;1764787;80;21143;-82
2021/05/05 03:49:52;;;;;;;3.52;1.67;;;;;;;13.67;44.48;95285.83;1741424;80;21104;-82
2021/05/05 03:52:18;;;;;;;2.33;1.40;;;;;;;13.66;44.80;95293.34;1764314;80;21368;-82
2021/05/05 03:54:43;;;;;;;1.65;1.30;;;;;;;13.67;44.39;95293.14;1757664;80;21115;-82
2021/05/05 03:57:10;;;;;;;1.75;1.40;;;;;;;13.70;44.66;95294.50;1760325;80;21114;-82
2021/05/05 03:59:36;;;;;;;3.62;1.40;;;;;;;13.70;44.46;95306.25;1758060;80;21066;-82
2021/05/05 04:02:02;;;;;;;2.35;1.47;;;;;;;13.70;44.71;95306.25;1759074;80;21216;-82
2021/05/05 04:04:28;;;;;;;2.22;1.20;;;;;;;13.67;44.64;95304.89;1757232;80;21099;-83
2021/05/05 04:06:54;;;;;;;1.62;1.20;;;;;;;13.67;44.48;95304.09;1760222;80;21116;-82
2021/05/05 04:09:20;;;;;;;2.67;1.30;;;;;;;13.68;44.72;95306.99;1763127;80;21123;-82
2021/05/05 04:11:46;;;;;;;1.95;1.10;;;;;;;13.66;44.73;95298.56;1760952;80;21279;-82
2021/05/05 04:14:12;;;;;;;2.20;1.30;;;;;;;13.65;44.70;95298.28;1765955;80;21503;-82
2021/05/05 04:16:38;;;;;;;2.67;1.30;;;;;;;13.64;44.82;95302.71;1763592;80;21126;-82
2021/05/05 04:19:04;;;;;;;2.40;1.40;;;;;;;13.64;44.80;95298.00;1760761;80;21303;-82
2021/05/05 04:21:31;;;;;;;3.00;1.65;;;;;;;13.61;44.83;95292.73;1762428;80;21086;-82
2021/05/05 04:23:57;;;;;;;2.95;1.90;;;;;;;13.60;44.92;95299.48;1728044;80;21140;-83
2021/05/05 04:26:23;;;;;;;3.75;1.70;;;;;;;13.60;45.00;95302.09;1762657;80;21067;-83
2021/05/05 04:28:49;;;;;;;3.33;2.10;;;;;;;13.58;45.21;95307.55;1767198;80;21110;-83
2021/05/05 04:31:15;;;;;;;14.28;12.07;;;;;;;13.58;45.45;95304.14;1767497;80;21113;-83
2021/05/05 04:33:43;;;;;;;3.90;2.22;;;;;;;13.56;45.73;95308.80;1760193;80;21374;-83
2021/05/05 04:36:09;;;;;;;2.55;1.80;;;;;;;13.55;45.55;95309.30;1762428;80;21130;-83
2021/05/05 04:38:35;;;;;;;3.52;1.67;;;;;;;13.53;45.72;95304.83;1766018;80;21079;-83
2021/05/05 04:41:01;;;;;;;2.42;2.22;;;;;;;13.53;45.71;95306.64;1768294;80;21130;-83
2021/05/05 04:43:27;;;;;;;3.12;1.60;;;;;;;13.53;45.90;95305.33;1761053;80;21110;-83
2021/05/05 04:45:53;;;;;;;4.03;1.80;;;;;;;13.53;45.81;95298.81;1766514;80;21106;-83
2021/05/05 04:48:19;;;;;;;1.85;1.65;;;;;;;13.53;45.58;95305.33;1772585;80;21099;-83
2021/05/05 04:50:46;;;;;;;2.25;1.82;;;;;;;13.53;45.58;95301.42;1756767;80;21123;-83
2021/05/05 04:53:12;;;;;;;2.47;1.50;;;;;;;13.53;45.75;95304.03;1762917;80;21107;-82
2021/05/05 04:55:38;;;;;;;1.67;1.30;;;;;;;13.51;45.91;95297.22;1770108;80;21158;-82
2021/05/05 04:58:04;;;;;;;1.98;1.67;;;;;;;13.52;45.49;95299.33;1760331;80;21120;-82
2021/05/05 05:00:30;;;;;;;3.80;1.80;;;;;;;13.54;45.91;95311.63;1761254;80;21263;-83
2021/05/05 05:02:56;;;;;;;1.95;1.50;;;;;;;13.53;45.92;95295.69;1767310;80;21121;-83
2021/05/05 05:05:22;;;;;;;2.37;1.60;;;;;;;13.56;46.05;95298.36;1765901;80;21126;-83
2021/05/05 05:07:49;;;;;;;2.83;1.87;;;;;;;13.57;45.85;95291.59;1770752;80;21126;-83
2021/05/05 05:10:15;;;;;;;2.22;1.77;;;;;;;13.59;46.22;95295.28;1779805;80;21207;-83
2021/05/05 05:12:41;;;;;;;2.72;2.27;;;;;;;13.61;46.35;95294.55;1762573;80;21247;-83
2021/05/05 05:15:08;;;;;;;2.92;2.37;;;;;;;13.63;46.30;95295.91;1733402;82;21102;-83
2021/05/05 05:17:34;;;;;;;3.52;2.47;;;;;;;13.65;46.19;95301.69;1778778;80;21321;-83
2021/05/05 05:20:00;;;;;;;2.95;2.37;;;;;;;13.68;46.18;95295.24;1765000;80;21091;-83
2021/05/05 05:22:26;;;;;;;2.95;2.00;;;;;;;13.72;46.32;95297.67;1774558;80;21102;-83
2021/05/05 05:24:52;;;;;;;4.62;3.67;;;;;;;13.76;46.17;95304.02;1789017;80;21275;-83
2021/05/05 05:27:18;;;;;;;2.30;1.90;;;;;;;13.82;46.40;95302.59;1766997;80;21266;-82
2021/05/05 05:29:44;;;;;;;1.92;1.60;;;;;;;13.89;46.39;95298.58;1780217;80;21098;-83
2021/05/05 05:32:10;;;;;;;2.60;2.00;;;;;;;13.93;46.20;95300.22;1735440;81;21453;-83
2021/05/05 05:34:36;;;;;;;2.47;1.60;;;;;;;13.97;46.44;95302.64;1773015;80;21840;-81
2021/05/05 05:37:03;;;;;;;5.80;2.33;;;;;;;14.00;46.09;95297.78;1772996;80;21567;-82
2021/05/05 05:39:29;;;;;;;1.60;1.32;;;;;;;14.04;46.09;95299.41;1784007;80;21236;-81
2021/05/05 05:41:55;;;;;;;2.70;1.60;;;;;;;14.11;46.04;95303.99;1780385;80;21454;-81
2021/05/05 05:44:21;;;;;;;2.85;1.37;;;;;;;14.20;45.97;95290.08;1742819;80;21393;-81
2021/05/05 05:46:47;;;;;;;2.40;1.67;;;;;;;14.28;46.39;95295.72;1778095;80;21083;-81
2021/05/05 05:49:14;;;;;;;3.42;1.52;;;;;;;14.36;46.20;95297.20;1777608;80;21106;-81
2021/05/05 05:51:40;;;;;;;2.75;1.50;;;;;;;14.39;45.42;95277.92;1768355;80;21121;-82
2021/05/05 05:54:06;;;;;;;2.02;1.37;;;;;;;14.41;45.66;95286.32;1776640;80;21055;-81
2021/05/05 05:56:32;;;;;;;2.37;1.70;;;;;;;14.41;45.44;95278.48;1764908;80;21106;-81
2021/05/05 05:58:58;;;;;;;3.50;1.50;;;;;;;14.45;45.52;95280.14;1782909;80;21129;-81
2021/05/05 06:01:25;;;;;;;1.70;1.50;;;;;;;14.53;45.68;95274.56;1775744;80;21277;-81
2021/05/05 06:03:51;;;;;;;3.35;2.12;;;;;;;14.63;45.79;95280.47;1774389;80;21193;-83
2021/05/05 06:06:17;;;;;;;3.50;1.40;;;;;;;14.76;45.21;95271.56;1718461;83;21122;-83
2021/05/05 06:08:43;;;;;;;2.62;1.70;;;;;;;14.90;44.97;95260.58;1753830;81;21113;-82
2021/05/05 06:11:09;;;;;;;6.92;1.70;;;;;;;15.05;44.99;95267.89;1752358;81;21719;-83
2021/05/05 06:13:35;;;;;;;3.65;1.90;;;;;;;15.21;44.45;95262.39;1747675;81;21102;-82
2021/05/05 06:16:01;;;;;;;3.70;2.02;;;;;;;15.39;44.98;95258.74;1756239;81;21108;-81
2021/05/05 06:18:27;;;;;;;2.08;1.30;;;;;;;15.45;44.09;95258.57;1744905;80;21254;-82
2021/05/05 06:20:53;;;;;;;3.60;1.77;;;;;;;15.40;44.55;95254.58;1744323;81;21149;-84
2021/05/05 06:23:19;;;;;;;2.70;1.82;;;;;;;15.39;43.94;95256.92;1744413;81;21130;-84
2021/05/05 06:25:45;;;;;;;3.77;1.82;;;;;;;15.37;44.27;95247.72;1754009;81;21433;-84
2021/05/05 06:28:11;;;;;;;2.98;1.60;;;;;;;15.33;43.96;95252.66;1743944;81;21228;-84
2021/05/05 06:30:37;;;;;;;2.02;1.77;;;;;;;15.30;44.64;95243.97;1747619;81;21134;-82
2021/05/05 06:33:04;;;;;;;2.58;1.57;;;;;;;15.25;44.77;95247.28;1758541;81;21217;-82
2021/05/05 06:35:30;;;;;;;2.05;1.52;;;;;;;15.22;44.37;95243.05;1754001;81;21337;-82
2021/05/05 06:37:56;;;;;;;2.15;1.30;;;;;;;15.10;44.24;95234.47;1736189;81;21127;-82
2021/05/05 06:40:22;;;;;;;2.52;1.60;;;;;;;15.03;44.92;95244.31;1752026;81;21091;-83
2021/05/05 06:42:48;;;;;;;1.75;1.42;;;;;;;14.99;45.03;95239.56;1753664;81;21074;-82
2021/05/05 06:45:14;;;;;;;2.67;1.60;;;;;;;14.92;45.12;95235.49;1752018;81;21104;-83
2021/05/05 06:47:40;;;;;;;2.70;1.52;;;;;;;14.81;44.79;95229.83;1753768;79;21228;-82
2021/05/05 06:50:09;;;;;;;2.35;1.60;;;;;;;14.75;45.25;95231.55;1746971;77;21110;-79
2021/05/05 06:52:35;;;;;;;1.37;1.20;;;;;;;14.80;45.66;95216.45;1721845;82;21074;-79
2021/05/05 06:55:02;;;;;;;1.87;1.47;;;;;;;14.95;45.37;95220.11;1753227;81;21444;-82
2021/05/05 06:57:28;;;;;;;1.72;1.30;;;;;;;15.13;45.08;95216.98;1754928;81;21125;-82
2021/05/05 06:59:54;;;;;;;3.02;1.75;;;;;;;15.28;45.01;95208.86;1739585;81;21087;-83
2021/05/05 07:02:20;;;;;;;3.37;2.15;;;;;;;15.42;44.60;95217.17;1740562;81;21222;-83
2021/05/05 07:04:47;;;;;;;1.62;1.40;;;;;;;15.53;44.64;95205.83;1766664;80;21308;-82
2021/05/05 07:07:13;;;;;;;2.87;1.50;;;;;;;15.70;44.43;95202.41;1773515;80;21131;-82
2021/05/05 07:09:39;;;;;;;3.17;2.62;;;;;;;15.83;44.30;95205.98;1758189;80;21208;-84
2021/05/05 07:12:05;;;;;;;3.42;2.35;;;;;;;15.98;44.20;95210.62;1710285;82;21107;-83
2021/05/05 07:14:35;;;;;;;2.55;1.67;;;;;;;16.11;44.46;95203.20;1779982;80;21122;-82
2021/05/05 07:17:00;;;;;;;2.35;1.60;;;;;;;16.20;43.54;95195.16;1773711;80;21141;-82
2021/05/05 07:19:27;;;;;;;2.83;1.50;;;;;;;16.32;44.23;95197.66;1700552;82;21119;-82
2021/05/05 07:21:53;;;;;;;1.62;1.37;;;;;;;16.43;43.71;95194.11;1766488;80;21110;-83
2021/05/05 07:24:20;;;;;;;3.58;1.50;;;;;;;16.51;42.60;95192.86;1703785;83;21134;-83
2021/05/05 07:26:47;;;;;;;2.95;1.65;;;;;;;16.55;42.49;95193.95;1768552;80;21161;-82
2021/05/05 07:29:14;;;;;;;2.30;1.65;;;;;;;16.62;43.09;95195.86;1759063;80;21137;-82
2021/05/05 07:31:40;;;;;;;2.65;1.40;;;;;;;16.71;43.85;95198.33;1760345;80;21102;-82
2021/05/05 07:34:08;;;;;;;2.47;1.60;;;;;;;16.80;43.59;95194.74;1755789;80;21114;-83
2021/05/05 07:36:34;;;;;;;1.80;1.50;;;;;;;16.89;43.73;95193.75;1763918;80;21240;-84
2021/05/05 07:49:51;;;;;;;3.05;1.30;;;;;;;17.31;42.25;95171.51;1759399;79;23032;-81
2021/05/05 07:52:19;;;;;;;2.77;1.62;;;;;;;17.38;42.56;95164.19;1753127;80;21107;-82
2021/05/05 07:54:46;;;;;;;2.22;1.45;;;;;;;17.46;42.02;95170.81;1753301;80;21110;-82
2021/05/05 07:57:15;;;;;;;3.75;2.05;;;;;;;17.51;41.75;95170.84;1710615;80;21153;-82
2021/05/05 07:59:41;;;;;;;3.72;1.40;;;;;;;17.56;41.71;95159.83;1756767;80;21111;-83
2021/05/05 08:02:07;;;;;;;3.40;1.62;;;;;;;17.66;41.25;95149.38;1746024;80;21320;-83
2021/05/05 08:04:34;;;;;;;2.22;1.52;;;;;;;17.79;41.61;95143.44;1727313;80;21439;-83
2021/05/05 08:07:00;;;;;;;2.37;1.15;;;;;;;17.93;41.41;95140.60;1748273;80;21305;-83
2021/05/05 08:09:27;;;;;;;2.65;1.25;;;;;;;18.04;40.55;95141.41;1734560;80;21309;-83
2021/05/05 08:11:53;;;;;;;2.35;1.80;;;;;;;18.16;40.24;95125.67;1746605;80;21106;-83
2021/05/05 08:14:19;;;;;;;2.75;1.35;;;;;;;18.28;40.84;95129.39;1744101;80;21274;-83
2021/05/05 08:16:46;;;;;;;4.28;1.82;;;;;;;18.41;39.88;95120.22;1732984;80;21098;-82
2021/05/05 08:19:12;;;;;;;2.87;1.70;;;;;;;18.56;40.60;95128.13;1731837;80;21078;-82
2021/05/05 08:21:40;;;;;;;3.72;1.65;;;;;;;18.67;39.87;95123.67;1738702;80;21233;-82
2021/05/05 08:24:08;;;;;;;2.27;1.32;;;;;;;18.75;39.75;95120.00;1720210;82;21106;-82
2021/05/05 08:26:35;;;;;;;4.50;1.50;;;;;;;18.87;40.01;95127.12;1743297;80;21232;-82
2021/05/05 08:29:01;;;;;;;2.75;1.45;;;;;;;19.04;40.52;95119.47;1730346;80;21107;-83
2021/05/05 08:31:27;;;;;;;1.72;1.07;;;;;;;19.21;39.89;95119.19;1730723;80;21313;-83
2021/05/05 08:33:53;;;;;;;3.25;1.47;;;;;;;19.27;39.58;95116.27;1736979;80;21102;-83
2021/05/05 08:36:19;;;;;;;3.22;1.75;;;;;;;19.35;39.04;95114.91;1731154;80;21102;-81
2021/05/05 08:38:45;;;;;;;2.30;1.20;;;;;;;19.52;39.26;95114.61;1726853;80;21118;-83
2021/05/05 08:41:11;;;;;;;2.80;1.20;;;;;;;19.48;38.75;95110.41;1726563;80;21114;-83
2021/05/05 08:43:37;;;;;;;1.77;1.35;;;;;;;19.46;38.42;95105.94;1732993;80;21270;-81
2021/05/05 08:46:06;;;;;;;2.70;1.35;;;;;;;19.32;37.08;95100.97;1756856;80;21248;-82
2021/05/05 08:48:31;;;;;;;2.47;1.30;;;;;;;19.29;37.63;95104.93;1706041;82;21101;-82
2021/05/05 08:50:58;;;;;;;2.02;1.12;;;;;;;19.36;38.24;95104.64;1708810;82;21106;-82
2021/05/05 08:53:24;;;;;;;2.52;1.10;;;;;;;19.24;38.38;95111.53;1702736;82;21444;-83
2021/05/05 08:55:50;;;;;;;1.70;1.20;;;;;;;19.11;38.05;95099.70;1693341;82;21122;-83
2021/05/05 08:58:16;;;;;;;3.90;1.40;;;;;;;19.10;38.58;95103.39;1715474;83;21122;-83
2021/05/05 09:00:42;;;;;;;2.45;1.50;;;;;;;19.04;39.25;95099.73;1710300;83;21348;-83
2021/05/05 09:03:08;;;;;;;3.50;1.50;;;;;;;18.97;39.54;95095.25;1690083;82;21126;-83
2021/05/05 09:05:53;;;;;;;2.25;1.20;;;;;;;18.85;39.06;95089.72;1690315;82;21150;-83
2021/05/05 09:08:21;;;;;;;2.62;1.25;;;;;;;18.94;38.77;95084.72;1700712;82;21340;-83
2021/05/05 09:11:03;;;;;;;3.15;1.30;;;;;;;19.08;38.69;95086.28;1713467;82;21093;-83
2021/05/05 09:13:53;;;;;;;2.90;1.40;;;;;;;19.17;37.62;95070.98;1713535;82;21078;-83
2021/05/05 09:16:30;;;;;;;2.83;1.37;;;;;;;19.13;37.69;95079.16;1689128;84;21115;-83
2021/05/05 09:19:09;;;;;;;2.95;1.40;;;;;;;19.28;37.43;95076.23;1701189;82;21336;-82
2021/05/05 09:21:41;;;;;;;4.83;1.32;;;;;;;19.43;38.05;95066.97;1711898;82;21081;-83
2021/05/05 09:24:20;;;;;;;4.53;1.60;;;;;;;19.65;38.36;95070.59;1700492;82;21121;-83
2021/05/05 09:26:51;;;;;;;2.92;1.47;;;;;;;19.81;37.90;95062.87;1694229;82;21105;-83
2021/05/05 09:29:17;;;;;;;2.67;1.32;;;;;;;19.99;37.89;95060.93;1707875;82;21141;-83
2021/05/05 09:31:44;;;;;;;1.72;1.30;;;;;;;20.09;37.18;95064.84;1690712;82;21283;-83
2021/05/05 09:34:11;;;;;;;2.87;1.45;;;;;;;20.02;36.75;95067.00;1703311;82;21242;-82
2021/05/05 09:36:57;;;;;;;2.27;1.55;;;;;;;19.81;36.78;95063.41;1692031;82;21121;-84
2021/05/05 09:39:29;;;;;;;2.35;1.40;;;;;;;19.67;37.73;95069.79;1700003;82;21149;-84
2021/05/05 09:41:55;;;;;;;3.20;1.57;;;;;;;19.62;36.72;95061.91;1694194;82;21315;-83
2021/05/05 09:44:22;;;;;;;2.35;1.65;;;;;;;19.46;37.09;95065.11;1698104;82;21110;-83
2021/05/05 09:46:51;;;;;;;2.33;1.35;;;;;;;19.34;37.50;95071.20;1711454;82;21109;-83
2021/05/05 09:49:32;;;;;;;4.03;1.70;;;;;;;19.24;36.20;95068.61;1727185;81;21222;-83
2021/05/05 09:52:09;;;;;;;1.85;1.47;;;;;;;19.07;36.98;95071.02;1724518;81;21096;-82
2021/05/05 09:54:41;;;;;;;3.15;1.50;;;;;;;18.97;36.99;95057.87;1682477;84;21122;-82
2021/05/05 09:57:28;;;;;;;1.77;1.60;;;;;;;18.89;37.32;95063.69;1719739;81;21060;-82
2021/05/05 10:00:12;;;;;;;3.25;2.02;;;;;;;18.85;38.01;95062.61;1716488;81;21120;-82
2021/05/05 10:02:56;;;;;;;3.87;1.80;;;;;;;18.74;37.30;95067.64;1682728;83;21333;-82
2021/05/05 10:05:29;;;;;;;3.57;1.87;;;;;;;18.61;38.43;95059.72;1684886;84;21244;-82
2021/05/05 10:08:08;;;;;;;3.30;1.62;;;;;;;18.45;38.05;95058.94;1700832;83;21099;-83
2021/05/05 10:10:39;;;;;;;2.87;1.57;;;;;;;18.36;38.42;95060.50;1747956;81;21310;-83
2021/05/05 10:13:08;;;;;;;3.37;1.55;;;;;;;18.28;38.45;95057.09;1724670;81;21128;-83
2021/05/05 10:15:37;;;;;;;5.90;3.05;;;;;;;18.19;37.50;95052.86;1731293;81;21933;-83
2021/05/05 10:18:04;;;;;;;2.42;1.67;;;;;;;18.11;38.18;95051.28;1723851;81;21123;-83
2021/05/05 10:20:31;;;;;;;3.58;1.95;;;;;;;18.04;37.88;95059.41;1717073;81;21111;-83
2021/05/05 10:23:00;;;;;;;2.55;1.67;;;;;;;17.97;38.43;95057.03;1737590;81;21233;-83
2021/05/05 10:25:26;;;;;;;3.22;2.00;;;;;;;17.92;38.31;95060.98;1712077;81;21138;-82
2021/05/05 10:27:54;;;;;;;2.27;1.65;;;;;;;17.85;38.85;95055.69;1714476;81;21111;-82
2021/05/05 10:30:24;;;;;;;2.98;2.10;;;;;;;17.84;39.39;95052.27;1724246;81;21096;-83
2021/05/05 10:32:50;;;;;;;2.92;1.70;;;;;;;17.82;39.41;95057.52;1722716;81;21111;-83
2021/05/05 10:35:17;;;;;;;3.10;1.90;;;;;;;17.83;39.30;95049.91;1733349;81;21107;-83
2021/05/05 10:37:56;;;;;;;4.42;2.00;;;;;;;17.84;39.27;95041.77;1733152;81;21103;-83
2021/05/05 10:40:23;;;;;;;4.60;2.27;;;;;;;17.89;39.91;95047.02;1680038;84;21192;-83
2021/05/05 10:42:58;;;;;;;3.75;2.02;;;;;;;17.94;40.06;95048.89;1674846;83;21370;-83
2021/05/05 10:45:40;;;;;;;5.37;2.08;;;;;;;17.98;40.21;95039.43;1673866;84;21330;-83
2021/05/05 10:48:13;;;;;;;3.27;2.40;;;;;;;18.00;40.02;95045.21;1725654;81;21258;-82
2021/05/05 10:50:54;;;;;;;3.25;1.82;;;;;;;18.02;40.62;95048.89;1718975;83;21146;-82
2021/05/05 10:53:28;;;;;;;3.00;1.77;;;;;;;17.99;40.15;95054.94;1723734;81;21119;-82
2021/05/05 10:55:59;;;;;;;4.92;1.80;;;;;;;17.93;39.84;95056.51;1721534;82;21276;-82
2021/05/05 10:58:30;;;;;;;4.67;1.42;;;;;;;17.87;40.17;95054.90;1738712;82;21094;-82
2021/05/05 11:01:04;;;;;;;2.60;1.90;;;;;;;17.84;40.11;95052.80;1745123;80;21217;-82
2021/05/05 11:03:49;;;;;;;2.27;1.70;;;;;;;17.84;40.27;95046.23;1740130;82;21293;-82
2021/05/05 11:06:40;;;;;;;4.40;1.75;;;;;;;17.87;39.88;95058.84;1734974;82;21124;-83
2021/05/05 11:09:19;;;;;;;2.12;1.80;;;;;;;17.89;39.62;95053.59;1731304;79;21132;-82
2021/05/05 11:11:53;;;;;;;2.75;1.70;;;;;;;17.88;40.03;95050.70;1739489;82;21444;-83
2021/05/05 11:14:31;;;;;;;1.82;1.62;;;;;;;17.85;39.81;95054.37;1731614;80;21132;-83
2021/05/05 11:17:02;;;;;;;3.05;1.60;;;;;;;17.81;39.76;95054.63;1743497;80;21106;-84
2021/05/05 11:19:43;;;;;;;2.65;1.52;;;;;;;17.80;39.61;95054.37;1739315;80;21141;-84
2021/05/05 11:22:22;;;;;;;3.25;1.82;;;;;;;17.81;39.99;95052.00;1738514;80;21956;-83
2021/05/05 11:24:50;;;;;;;2.15;1.70;;;;;;;17.81;39.88;95058.05;1732256;80;21090;-84
2021/05/05 11:27:18;;;;;;;4.05;1.62;;;;;;;17.81;40.20;95055.42;1738082;82;21753;-82
2021/05/05 11:29:50;;;;;;;2.00;1.80;;;;;;;17.85;40.63;95050.44;1739763;80;21126;-83
2021/05/05 11:32:25;;;;;;;2.55;1.72;;;;;;;17.84;40.73;95049.64;1735538;80;21130;-83
2021/05/05 11:34:51;;;;;;;2.95;2.00;;;;;;;17.81;40.59;95052.80;1741347;80;21115;-84
2021/05/05 11:37:26;;;;;;;2.50;1.95;;;;;;;17.75;40.61;95049.90;1724705;80;21300;-84
2021/05/05 11:40:05;;;;;;;2.67;1.87;;;;;;;17.70;40.69;95059.06;1736628;80;21110;-83
2021/05/05 11:42:34;;;;;;;3.65;2.55;;;;;;;17.59;40.65;95083.70;1739328;79;21114;-83
2021/05/05 11:45:03;;;;;;;4.78;2.70;;;;;;;17.37;42.99;95100.91;1740482;80;21086;-82
2021/05/05 11:47:32;;;;;;;3.22;1.98;;;;;;;17.04;45.26;95121.72;1732397;80;21155;-82